Time;durP1;ratioP1;P1;durP2;ratioP2;P2;SDS_P1;SDS_P2;PMS_P1;PMS_P2;Temp;Humidity;BMP_temperature;BMP_pressure;BME280_temperature;BME280_humidity;BME280_pressure;Samples;Min_cycle;Max_cycle;Signal;HPM_P1;HPM_P2
2023/04/25 00:01:22;;;;;;;7.97;5.00;;;;;;;6.84;91.90;99558.88;5031424;28;20216;-75
2023/04/25 00:03:50;;;;;;;9.50;4.33;;;;;;;7.00;91.72;99549.06;5031351;28;20219;-75
2023/04/25 00:06:17;;;;;;;7.83;4.70;;;;;;;7.03;91.28;99550.75;5031296;28;20232;-76
2023/04/25 00:08:44;;;;;;;6.73;4.77;;;;;;;7.15;90.29;99553.97;5031856;28;20384;-75
2023/04/25 00:11:10;;;;;;;7.30;4.60;;;;;;;7.12;90.36;99567.00;5035140;28;20208;-75
2023/04/25 00:13:37;;;;;;;7.83;4.57;;;;;;;7.05;89.51;99582.69;5035169;28;20210;-75
2023/04/25 00:16:04;;;;;;;6.47;4.13;;;;;;;7.10;89.20;99601.66;5034916;28;20701;-75
2023/04/25 00:18:33;;;;;;;7.50;4.97;;;;;;;7.14;88.78;99622.31;5034442;28;20231;-75
2023/04/25 00:21:00;;;;;;;9.20;5.03;;;;;;;7.19;88.67;99632.59;5034557;28;20208;-75
2023/04/25 00:23:27;;;;;;;8.23;4.87;;;;;;;7.12;87.79;99649.19;5034667;28;20213;-75
2023/04/25 00:25:53;;;;;;;12.67;5.00;;;;;;;7.03;87.32;99659.72;5034324;28;20223;-75
2023/04/25 00:28:19;;;;;;;5.40;4.90;;;;;;;7.00;88.42;99658.03;5033637;28;20270;-75
2023/04/25 00:30:46;;;;;;;7.50;5.50;;;;;;;7.10;88.24;99654.41;5034495;28;20205;-75
2023/04/25 00:33:12;;;;;;;7.90;4.97;;;;;;;7.05;88.30;99657.94;5034478;28;20681;-75
2023/04/25 00:35:39;;;;;;;7.47;5.23;;;;;;;7.06;88.11;99644.97;5034527;28;20202;-75
2023/04/25 00:38:07;;;;;;;6.83;4.80;;;;;;;7.05;88.30;99650.16;5034177;28;20643;-75
2023/04/25 00:40:33;;;;;;;6.90;5.17;;;;;;;7.07;88.58;99648.41;5034074;28;20550;-74
2023/04/25 00:43:00;;;;;;;6.17;5.53;;;;;;;7.00;89.14;99631.22;5034442;28;20208;-75
2023/04/25 00:45:30;;;;;;;6.03;5.30;;;;;;;6.94;89.91;99633.06;5034253;28;20275;-75
2023/04/25 00:47:56;;;;;;;6.97;5.30;;;;;;;6.99;89.49;99617.38;5034284;28;20228;-75
2023/04/25 00:50:23;;;;;;;10.73;6.57;;;;;;;6.87;89.84;99610.69;5046698;28;20611;-75
2023/04/25 00:52:50;;;;;;;7.17;5.87;;;;;;;6.81;90.02;99608.19;5055064;28;20281;-75
2023/04/25 00:55:18;;;;;;;9.37;6.77;;;;;;;6.70;91.42;99602.31;5055362;28;20274;-75
2023/04/25 00:57:44;;;;;;;7.53;6.53;;;;;;;6.78;91.79;99584.91;5051093;28;20236;-75
2023/04/25 01:00:13;;;;;;;9.67;6.33;;;;;;;6.70;91.42;99577.25;5033726;28;20255;-75
2023/04/25 01:02:40;;;;;;;9.60;6.90;;;;;;;6.66;91.28;99578.19;5033889;28;20234;-75
2023/04/25 01:05:07;;;;;;;9.53;6.87;;;;;;;6.82;91.47;99567.53;5034256;28;20203;-75
2023/04/25 01:07:34;;;;;;;7.67;6.50;;;;;;;6.83;91.80;99569.25;5034106;28;20232;-75
2023/04/25 01:10:02;;;;;;;11.93;6.67;;;;;;;6.61;91.89;99572.22;5033873;28;20209;-75
2023/04/25 01:12:30;;;;;;;7.93;6.40;;;;;;;6.84;92.21;99552.81;5033786;28;20810;-75
2023/04/25 01:14:57;;;;;;;9.40;6.60;;;;;;;6.87;92.08;99544.97;5033750;28;20208;-75
2023/04/25 01:17:23;;;;;;;9.73;6.53;;;;;;;6.97;92.41;99539.56;5033636;28;20287;-74
2023/04/25 01:19:51;;;;;;;9.63;7.30;;;;;;;6.88;91.94;99546.72;5033349;28;20209;-75
2023/04/25 01:22:19;;;;;;;10.53;6.67;;;;;;;6.96;91.54;99544.81;5033738;28;20214;-75
2023/04/25 01:24:46;;;;;;;7.40;6.43;;;;;;;7.03;91.72;99550.75;5033587;28;20214;-75
2023/04/25 01:27:12;;;;;;;8.20;6.20;;;;;;;7.05;91.35;99557.59;5033233;28;20287;-75
2023/04/25 01:29:39;;;;;;;7.47;6.47;;;;;;;6.87;91.60;99561.38;5041134;28;20242;-75
2023/04/25 01:32:06;;;;;;;7.27;6.50;;;;;;;6.82;92.51;99544.19;5033427;28;20263;-74
2023/04/25 01:34:33;;;;;;;11.50;7.33;;;;;;;6.74;92.62;99545.22;5033698;28;20209;-75
2023/04/25 01:37:01;;;;;;;12.80;6.40;;;;;;;6.71;93.10;99532.28;5033381;28;20272;-75
2023/04/25 01:39:29;;;;;;;10.37;7.50;;;;;;;6.63;93.54;99512.56;5033212;28;20219;-74
2023/04/25 01:41:56;;;;;;;7.90;7.17;;;;;;;6.69;93.96;99502.94;5033305;28;20220;-75
2023/04/25 01:44:22;;;;;;;12.93;7.40;;;;;;;6.46;95.36;99498.16;5033239;28;20211;-74
2023/04/25 01:46:49;;;;;;;16.20;8.13;;;;;;;6.54;95.41;99478.16;5032982;28;20369;-74
2023/04/25 01:49:15;;;;;;;10.70;7.80;;;;;;;6.51;96.25;99459.19;5033555;28;20614;-75
2023/04/25 01:51:42;;;;;;;10.80;7.80;;;;;;;6.38;96.75;99455.94;5033286;28;20265;-75
2023/04/25 01:54:09;;;;;;;12.27;8.13;;;;;;;6.53;96.69;99442.72;5033029;28;20263;-74
2023/04/25 01:56:39;;;;;;;10.63;7.53;;;;;;;6.68;96.20;99438.13;5032957;28;20202;-74
2023/04/25 01:59:06;;;;;;;11.53;7.77;;;;;;;6.68;96.76;99446.78;5037961;28;20660;-75
2023/04/25 02:01:33;;;;;;;9.23;7.33;;;;;;;6.77;96.40;99450.91;5035269;28;20206;-75
2023/04/25 02:03:59;;;;;;;12.20;7.47;;;;;;;6.84;94.77;99462.00;5032753;28;20749;-75
2023/04/25 02:06:25;;;;;;;10.90;8.53;;;;;;;6.64;96.06;99475.38;5032611;28;20278;-75
2023/04/25 02:08:52;;;;;;;11.13;8.80;;;;;;;6.59;95.45;99482.38;5032659;28;20277;-75
2023/04/25 02:11:18;;;;;;;11.37;7.70;;;;;;;6.72;95.83;99466.56;5032585;28;20205;-75
2023/04/25 02:13:46;;;;;;;10.30;8.83;;;;;;;6.83;95.95;99474.13;5032481;28;20674;-76
2023/04/25 02:16:13;;;;;;;12.30;9.53;;;;;;;6.68;95.90;99485.66;5032329;28;20202;-75
2023/04/25 02:18:39;;;;;;;12.17;8.53;;;;;;;6.64;96.25;99481.44;5032471;28;20319;-75
2023/04/25 02:21:05;;;;;;;13.50;9.10;;;;;;;6.69;95.68;99481.34;5032284;28;20740;-75
2023/04/25 02:23:32;;;;;;;10.80;8.23;;;;;;;6.54;97.61;99477.25;5032582;28;20251;-75
2023/04/25 02:25:58;;;;;;;10.73;8.50;;;;;;;6.43;98.91;99450.69;5032712;28;20225;-75
2023/04/25 02:28:25;;;;;;;13.83;8.90;;;;;;;6.56;99.33;99421.94;5031859;28;20708;-75
2023/04/25 02:30:53;;;;;;;15.60;8.50;;;;;;;6.51;99.89;99407.34;5031856;28;20666;-75
2023/04/25 02:33:20;;;;;;;10.77;9.13;;;;;;;6.36;100.00;99393.78;5032198;28;20550;-75
2023/04/25 02:35:47;;;;;;;14.43;9.33;;;;;;;6.08;100.00;99364.06;5032093;28;20657;-75
2023/04/25 02:38:13;;;;;;;14.17;9.20;;;;;;;6.19;100.00;99330.22;5031918;28;20269;-76
2023/04/25 02:40:40;;;;;;;13.50;9.40;;;;;;;6.27;100.00;99305.00;5031643;28;20210;-75
2023/04/25 02:43:07;;;;;;;10.57;8.63;;;;;;;6.23;100.00;99304.19;5037307;28;20207;-75
2023/04/25 02:45:33;;;;;;;12.40;8.20;;;;;;;6.10;100.00;99303.56;5031987;28;20214;-75
2023/04/25 02:48:01;;;;;;;11.10;7.90;;;;;;;6.07;100.00;99290.69;5031698;28;20301;-75
2023/04/25 02:50:27;;;;;;;12.47;9.30;;;;;;;6.18;100.00;99287.88;5031637;28;20209;-75
2023/04/25 02:52:53;;;;;;;9.67;8.10;;;;;;;6.05;100.00;99294.22;5031906;28;20211;-75
2023/04/25 02:55:20;;;;;;;9.10;8.20;;;;;;;5.94;100.00;99291.75;5031810;28;20220;-75
2023/04/25 02:57:46;;;;;;;9.53;6.67;;;;;;;6.07;100.00;99289.84;5031397;28;20227;-75
2023/04/25 03:00:14;;;;;;;8.90;8.03;;;;;;;5.98;100.00;99290.84;5031340;28;20209;-75
2023/04/25 03:02:41;;;;;;;8.30;7.50;;;;;;;6.13;100.00;99298.34;5031808;28;20209;-75
2023/04/25 03:05:09;;;;;;;7.97;7.17;;;;;;;6.18;100.00;99321.56;5031854;28;20210;-75
2023/04/25 03:07:35;;;;;;;9.60;7.13;;;;;;;6.09;100.00;99312.25;5031741;28;20235;-75
2023/04/25 03:10:02;;;;;;;10.07;6.50;;;;;;;5.86;100.00;99333.34;5031429;28;20261;-75
2023/04/25 03:12:28;;;;;;;9.53;6.57;;;;;;;5.80;100.00;99348.97;5031174;28;20771;-74
2023/04/25 03:14:55;;;;;;;11.07;6.50;;;;;;;5.70;100.00;99352.63;5031507;28;20239;-75
2023/04/25 03:17:21;;;;;;;10.60;7.17;;;;;;;5.52;100.00;99351.19;5031220;28;20624;-75
2023/04/25 03:19:47;;;;;;;14.13;5.47;;;;;;;5.51;100.00;99349.47;5031642;28;20265;-75
2023/04/25 03:22:15;;;;;;;9.93;5.70;;;;;;;5.49;100.00;99353.81;5031645;28;20259;-75
2023/04/25 03:24:41;;;;;;;14.40;5.47;;;;;;;5.46;100.00;99356.47;5031540;28;20730;-75
2023/04/25 03:27:08;;;;;;;14.93;5.53;;;;;;;5.48;100.00;99363.31;5031121;28;20236;-75
2023/04/25 03:29:35;;;;;;;13.53;5.23;;;;;;;5.43;100.00;99369.44;5031081;28;20667;-75
2023/04/25 03:32:01;;;;;;;15.47;5.40;;;;;;;5.39;100.00;99373.78;5031466;28;20663;-74
2023/04/25 03:34:28;;;;;;;10.00;5.10;;;;;;;5.38;100.00;99383.28;5031537;28;20258;-75
2023/04/25 03:36:54;;;;;;;18.13;5.90;;;;;;;5.34;100.00;99385.97;5031222;28;20208;-75
2023/04/25 03:39:22;;;;;;;13.07;4.80;;;;;;;5.41;100.00;99385.00;5031126;28;20214;-75
2023/04/25 03:41:49;;;;;;;10.40;5.90;;;;;;;5.38;100.00;99395.38;5031297;28;20214;-75
2023/04/25 03:44:15;;;;;;;15.27;6.00;;;;;;;5.39;100.00;99397.09;5032417;28;20672;-75
2023/04/25 03:46:41;;;;;;;12.70;5.13;;;;;;;5.31;100.00;99392.03;5035019;28;20231;-75
2023/04/25 03:49:08;;;;;;;13.73;5.80;;;;;;;5.30;100.00;99387.72;5033930;28;20198;-75
2023/04/25 03:51:34;;;;;;;15.43;6.23;;;;;;;5.35;100.00;99387.66;5034823;28;20207;-75
2023/04/25 03:56:31;;;;;;;18.27;5.97;;;;;;;5.33;100.00;99390.28;5032236;28;20518;-75
2023/04/25 03:58:57;;;;;;;18.83;5.27;;;;;;;5.25;100.00;99386.09;5034295;28;20230;-75
2023/04/25 04:01:25;;;;;;;16.07;6.87;;;;;;;5.27;100.00;99382.63;5034866;28;20265;-75
2023/04/25 04:03:51;;;;;;;20.50;5.97;;;;;;;5.31;100.00;99389.47;5034820;28;20243;-75
2023/04/25 04:06:18;;;;;;;11.77;5.40;;;;;;;5.34;100.00;99389.41;5034662;28;20226;-75
2023/04/25 04:08:44;;;;;;;11.30;5.50;;;;;;;5.41;100.00;99397.94;5034434;28;20229;-75
2023/04/25 04:11:11;;;;;;;13.93;5.53;;;;;;;5.43;100.00;99397.91;5034518;28;20208;-74
2023/04/25 04:13:38;;;;;;;13.27;6.57;;;;;;;5.42;100.00;99401.38;5034371;28;20613;-75
2023/04/25 04:16:06;;;;;;;11.60;5.30;;;;;;;5.48;100.00;99417.66;5034734;28;20218;-75
2023/04/25 04:18:33;;;;;;;13.23;5.80;;;;;;;5.49;100.00;99431.44;5034357;28;20284;-75
2023/04/25 04:20:59;;;;;;;14.97;5.33;;;;;;;5.53;100.00;99446.06;5046824;28;20251;-74
2023/04/25 04:23:26;;;;;;;19.50;5.40;;;;;;;5.48;100.00;99459.06;5054353;28;20207;-75
2023/04/25 04:25:53;;;;;;;24.67;7.50;;;;;;;5.40;100.00;99465.25;5054548;28;20210;-75
2023/04/25 04:28:20;;;;;;;10.30;5.40;;;;;;;5.45;100.00;99469.47;5054273;28;20230;-75
2023/04/25 04:30:50;;;;;;;11.10;5.07;;;;;;;5.45;100.00;99469.47;5053984;28;20654;-75
2023/04/25 04:33:18;;;;;;;10.67;5.63;;;;;;;5.47;100.00;99483.25;5054518;28;20203;-75
2023/04/25 04:35:48;;;;;;;13.83;5.27;;;;;;;5.43;100.00;99488.47;5045831;28;20238;-75
2023/04/25 04:38:15;;;;;;;11.13;5.00;;;;;;;5.38;100.00;99488.53;5033951;28;20284;-75
2023/04/25 04:40:42;;;;;;;17.13;4.97;;;;;;;5.39;100.00;99503.19;5034196;28;20252;-75
2023/04/25 04:43:10;;;;;;;19.27;5.07;;;;;;;5.44;100.00;99493.63;5034274;28;20244;-75
2023/04/25 04:45:37;;;;;;;16.43;5.00;;;;;;;5.48;100.00;99502.22;5034188;28;20212;-75
2023/04/25 04:48:06;;;;;;;24.77;6.10;;;;;;;5.45;100.00;99512.59;5033828;28;20282;-75
2023/04/25 04:50:33;;;;;;;18.27;6.23;;;;;;;5.45;100.00;99522.94;5033536;28;20261;-75
2023/04/25 04:53:00;;;;;;;12.10;5.77;;;;;;;5.44;100.00;99529.03;5034364;28;20211;-75
2023/04/25 04:55:26;;;;;;;14.43;5.27;;;;;;;5.49;100.00;99542.75;5033769;28;20212;-75
2023/04/25 04:57:53;;;;;;;16.23;5.30;;;;;;;5.53;100.00;99560.81;5033684;28;20257;-75
2023/04/25 05:00:20;;;;;;;12.57;4.90;;;;;;;5.65;100.00;99575.34;5033708;28;20553;-75
2023/04/25 05:02:47;;;;;;;11.03;5.27;;;;;;;5.69;100.00;99589.09;5033786;28;20262;-75
2023/04/25 05:05:14;;;;;;;14.70;5.40;;;;;;;5.64;100.00;99606.44;5033530;28;20676;-75
2023/04/25 05:07:41;;;;;;;9.63;4.30;;;;;;;5.65;100.00;99614.19;5033688;28;20276;-75
2023/04/25 05:10:08;;;;;;;15.20;5.03;;;;;;;5.67;100.00;99615.03;5033724;28;20207;-75
2023/04/25 05:12:35;;;;;;;10.87;5.00;;;;;;;5.64;100.00;99630.56;5033614;28;20219;-75
2023/04/25 05:15:01;;;;;;;15.53;4.87;;;;;;;5.64;100.00;99634.91;5033754;28;20211;-75
2023/04/25 05:17:27;;;;;;;15.37;4.57;;;;;;;5.55;100.00;99636.72;5033344;28;20223;-75
2023/04/25 05:19:54;;;;;;;15.07;4.47;;;;;;;5.55;100.00;99649.66;5032925;28;20260;-75
2023/04/25 05:22:22;;;;;;;16.70;5.03;;;;;;;5.61;100.00;99659.09;5033459;28;20584;-75
2023/04/25 05:24:48;;;;;;;13.47;4.53;;;;;;;5.63;100.00;99672.00;5033509;28;20208;-77
2023/04/25 05:27:17;;;;;;;16.30;5.30;;;;;;;5.67;100.00;99674.56;5033279;28;20225;-75
2023/04/25 05:29:44;;;;;;;23.03;5.43;;;;;;;5.58;100.00;99690.19;5033637;28;20208;-75
2023/04/25 05:32:11;;;;;;;12.00;4.83;;;;;;;5.58;100.00;99687.59;5033012;28;20217;-75
2023/04/25 05:34:37;;;;;;;11.47;5.00;;;;;;;5.65;100.00;99693.56;5033078;28;20679;-75
2023/04/25 05:37:03;;;;;;;22.17;4.77;;;;;;;5.67;100.00;99703.03;5033235;28;20219;-75
2023/04/25 05:39:31;;;;;;;12.87;4.30;;;;;;;5.82;98.67;99716.69;5033090;28;20890;-75
2023/04/25 05:41:58;;;;;;;12.90;4.70;;;;;;;5.83;98.84;99733.94;5033274;28;20215;-75
2023/04/25 05:44:24;;;;;;;18.90;4.90;;;;;;;5.83;98.68;99747.75;5033014;28;20211;-75
2023/04/25 05:46:51;;;;;;;19.70;5.33;;;;;;;5.94;97.62;99758.00;5032706;28;20229;-75
2023/04/25 05:49:17;;;;;;;12.50;4.83;;;;;;;5.97;96.98;99781.31;5032598;28;20737;-75
2023/04/25 05:51:44;;;;;;;20.33;4.83;;;;;;;6.02;96.34;99807.16;5043633;28;20210;-74
2023/04/25 05:54:10;;;;;;;14.73;4.40;;;;;;;5.95;95.57;99821.91;5052787;28;20603;-75
2023/04/25 05:56:38;;;;;;;14.10;4.93;;;;;;;5.96;95.17;99855.56;5052679;28;20205;-74
2023/04/25 05:59:04;;;;;;;12.37;3.60;;;;;;;5.99;93.02;99882.34;5052600;28;20667;-74
2023/04/25 06:01:31;;;;;;;16.80;4.03;;;;;;;6.03;93.53;99884.03;5048127;28;20291;-74
2023/04/25 06:03:57;;;;;;;23.57;4.57;;;;;;;5.94;90.64;99916.00;5032806;28;20209;-74
2023/04/25 06:06:23;;;;;;;12.87;3.43;;;;;;;5.94;88.92;99984.19;5031995;28;20210;-74
2023/04/25 06:08:50;;;;;;;10.70;3.23;;;;;;;6.13;87.64;100010.03;5032399;28;20735;-74
2023/04/25 06:11:16;;;;;;;16.60;3.93;;;;;;;6.18;86.39;100049.69;5032560;28;20210;-74
2023/04/25 06:13:44;;;;;;;16.20;3.53;;;;;;;6.28;87.04;100072.13;5032356;28;20685;-74
2023/04/25 06:16:10;;;;;;;12.33;3.77;;;;;;;6.16;85.44;100105.88;5032251;28;20310;-74
2023/04/25 06:18:37;;;;;;;9.20;3.50;;;;;;;6.08;84.93;100149.97;5032132;28;20716;-74
2023/04/25 06:21:04;;;;;;;15.70;3.67;;;;;;;5.93;84.48;100150.03;5032122;28;20203;-74
2023/04/25 06:23:30;;;;;;;12.70;3.40;;;;;;;6.09;84.59;100175.00;5031377;28;20651;-75
2023/04/25 06:25:56;;;;;;;16.50;3.97;;;;;;;6.06;84.20;100185.38;5032581;28;20212;-74
2023/04/25 06:28:24;;;;;;;8.77;3.63;;;;;;;6.24;81.71;100219.84;5031729;28;20231;-74
2023/04/25 06:30:51;;;;;;;15.97;3.47;;;;;;;6.34;82.31;100244.84;5032292;28;20207;-75
2023/04/25 06:33:18;;;;;;;13.10;3.70;;;;;;;6.31;82.06;100239.72;5032138;28;20206;-75
2023/04/25 06:35:44;;;;;;;9.53;3.47;;;;;;;6.30;80.65;100269.97;5032177;28;20256;-75
2023/04/25 06:38:11;;;;;;;12.13;4.50;;;;;;;6.19;81.59;100279.50;5032030;28;20573;-75
2023/04/25 06:40:37;;;;;;;11.03;3.80;;;;;;;6.07;82.83;100277.81;5031688;28;20218;-75
2023/04/25 06:43:03;;;;;;;13.40;3.30;;;;;;;6.15;82.18;100277.78;5031810;28;20206;-75
2023/04/25 06:45:30;;;;;;;8.03;3.57;;;;;;;6.16;82.03;100275.19;5032139;28;20211;-75
2023/04/25 06:47:58;;;;;;;10.30;3.50;;;;;;;6.16;83.85;100251.00;5031716;28;20239;-75
2023/04/25 06:50:24;;;;;;;10.17;3.67;;;;;;;6.18;83.38;100253.56;5031807;28;20268;-75
2023/04/25 06:52:50;;;;;;;15.37;3.80;;;;;;;6.25;83.57;100239.75;5031793;28;20734;-75
2023/04/25 06:55:17;;;;;;;11.67;2.97;;;;;;;6.39;80.41;100269.03;5031756;28;20208;-75
2023/04/25 06:57:43;;;;;;;11.17;3.40;;;;;;;6.31;79.28;100307.09;5031389;28;20299;-74
2023/04/25 07:00:11;;;;;;;9.87;4.20;;;;;;;6.40;77.77;100332.13;5031747;28;20241;-75
2023/04/25 07:02:37;;;;;;;9.93;3.00;;;;;;;6.69;79.17;100345.81;5031792;28;20317;-75
2023/04/25 07:05:06;;;;;;;8.03;3.13;;;;;;;6.80;80.05;100342.31;5032028;28;20569;-75
2023/04/25 07:07:32;;;;;;;8.07;2.73;;;;;;;6.89;78.37;100344.88;5031567;28;20268;-75
2023/04/25 07:09:59;;;;;;;10.70;3.33;;;;;;;6.91;74.28;100382.06;5031415;28;20210;-75
2023/04/25 07:12:25;;;;;;;11.43;4.37;;;;;;;7.06;75.24;100431.28;5031611;28;20208;-72
2023/04/25 07:14:51;;;;;;;12.53;4.00;;;;;;;7.00;75.90;100446.88;5031619;28;20213;-75
2023/04/25 07:17:18;;;;;;;9.37;2.70;;;;;;;7.08;71.59;100509.16;5031469;28;20648;-75
2023/04/25 07:19:44;;;;;;;13.33;2.27;;;;;;;6.93;68.67;100580.13;5035874;28;20269;-75
2023/04/25 07:22:12;;;;;;;11.70;2.90;;;;;;;6.90;68.83;100638.06;5035721;28;20233;-74
2023/04/25 07:24:38;;;;;;;9.40;2.73;;;;;;;7.03;70.42;100664.00;5035236;28;20260;-75
2023/04/25 07:27:06;;;;;;;15.87;3.20;;;;;;;7.00;69.16;100664.00;5035290;28;20313;-75
2023/04/25 07:29:32;;;;;;;11.37;3.10;;;;;;;7.00;68.49;100688.25;5035493;28;20216;-76
2023/04/25 07:31:59;;;;;;;7.53;3.03;;;;;;;6.93;69.89;100696.88;5038524;28;20265;-80
2023/04/25 07:34:25;;;;;;;6.47;2.83;;;;;;;6.85;69.14;100688.25;5040151;28;20211;-79
2023/04/25 07:36:52;;;;;;;7.47;2.00;;;;;;;7.09;69.08;100692.56;5038081;28;20210;-80
2023/04/25 07:39:20;;;;;;;9.30;3.10;;;;;;;7.32;71.71;100670.03;5037388;28;20225;-78
2023/04/25 07:41:46;;;;;;;7.20;2.57;;;;;;;7.45;72.04;100647.50;5036881;28;20286;-73
2023/04/25 07:44:12;;;;;;;12.00;2.50;;;;;;;7.38;69.45;100645.78;5035403;28;20204;-73
2023/04/25 07:46:39;;;;;;;4.20;2.40;;;;;;;7.40;69.72;100672.63;5035133;28;20265;-75
2023/04/25 07:49:05;;;;;;;6.57;2.60;;;;;;;7.49;67.71;100677.81;5035002;28;20221;-74
2023/04/25 07:51:32;;;;;;;8.53;2.70;;;;;;;7.47;67.73;100699.44;5035122;28;20614;-75
2023/04/25 07:53:59;;;;;;;6.63;2.40;;;;;;;7.56;67.61;100726.25;5034975;28;20251;-73
2023/04/25 07:56:27;;;;;;;12.67;3.20;;;;;;;7.58;69.35;100726.25;5034775;28;20632;-73
2023/04/25 07:58:53;;;;;;;5.97;2.30;;;;;;;7.51;70.77;100715.03;5034900;28;20377;-73
2023/04/25 08:01:21;;;;;;;8.97;3.00;;;;;;;7.47;72.09;100676.94;5035109;28;20207;-73
2023/04/25 08:03:47;;;;;;;5.63;2.73;;;;;;;7.11;71.65;100652.75;5034981;28;20300;-73
2023/04/25 08:06:14;;;;;;;7.07;3.53;;;;;;;6.85;71.33;100660.56;5035390;28;20203;-73
2023/04/25 08:08:40;;;;;;;10.33;2.87;;;;;;;6.85;71.74;100633.75;5034526;28;20741;-73
2023/04/25 08:11:07;;;;;;;8.07;2.27;;;;;;;6.97;72.57;100613.84;5034814;28;20218;-73
2023/04/25 08:13:35;;;;;;;8.57;2.40;;;;;;;7.01;67.45;100627.69;5034826;28;20218;-73
2023/04/25 08:16:01;;;;;;;7.83;2.77;;;;;;;7.07;67.63;100670.94;5034509;28;20233;-73
2023/04/25 08:18:27;;;;;;;6.73;2.40;;;;;;;7.12;69.47;100667.47;5034450;28;20282;-73
2023/04/25 08:20:54;;;;;;;7.60;2.20;;;;;;;7.31;70.81;100664.84;5034485;28;20271;-73
2023/04/25 08:23:20;;;;;;;11.53;2.77;;;;;;;7.23;67.64;100661.41;5034472;28;20266;-73
2023/04/25 08:25:47;;;;;;;8.00;2.70;;;;;;;7.05;66.34;100722.84;5034659;28;20602;-74
2023/04/25 08:28:13;;;;;;;7.73;2.53;;;;;;;7.33;66.54;100731.50;5034361;28;20232;-73
2023/04/25 08:30:41;;;;;;;6.13;1.77;;;;;;;7.36;64.63;100772.19;5033435;28;20209;-73
2023/04/25 08:33:07;;;;;;;7.57;2.40;;;;;;;7.35;65.31;100792.09;5034127;28;20679;-73
2023/04/25 08:35:34;;;;;;;7.50;2.60;;;;;;;7.39;63.39;100803.31;5034187;28;20206;-73
2023/04/25 08:38:01;;;;;;;4.80;1.90;;;;;;;7.34;62.92;100857.00;5034156;28;20585;-73
2023/04/25 08:40:29;;;;;;;6.97;2.00;;;;;;;7.52;65.26;100857.00;5034302;28;20643;-73
2023/04/25 08:42:57;;;;;;;7.50;2.40;;;;;;;7.70;65.16;100845.75;5034293;28;20209;-73
2023/04/25 08:45:24;;;;;;;5.93;1.77;;;;;;;7.30;61.51;100897.69;5034040;28;20263;-73
2023/04/25 08:47:53;;;;;;;4.60;1.97;;;;;;;7.45;60.69;100932.31;5033670;28;20230;-73
2023/04/25 08:50:22;;;;;;;7.33;2.10;;;;;;;7.62;59.21;100972.19;5033887;28;20212;-73
2023/04/25 08:52:52;;;;;;;3.97;1.73;;;;;;;7.67;59.58;101011.16;5034226;28;20219;-73
2023/04/25 08:55:19;;;;;;;7.50;1.97;;;;;;;7.90;61.40;101017.28;5033742;28;20217;-73
2023/04/25 08:57:46;;;;;;;5.37;1.80;;;;;;;7.85;60.38;101011.22;5033852;28;20290;-73
2023/04/25 09:00:14;;;;;;;4.40;1.73;;;;;;;8.02;60.63;101016.41;5033687;28;20208;-73
2023/04/25 09:02:41;;;;;;;4.87;1.70;;;;;;;7.98;58.74;100999.09;5033704;28;20216;-73
2023/04/25 09:05:10;;;;;;;4.33;1.97;;;;;;;8.22;60.51;101025.97;5033667;28;20696;-73
2023/04/25 09:07:37;;;;;;;5.87;1.70;;;;;;;8.30;60.74;101030.28;5033684;28;20228;-73
2023/04/25 09:10:04;;;;;;;5.23;1.77;;;;;;;7.98;58.73;101013.81;5029475;28;20197;-73
2023/04/25 09:12:30;;;;;;;4.63;1.50;;;;;;;7.82;58.51;101057.13;5024541;28;20198;-73
2023/04/25 09:15:05;;;;;;;2.80;1.63;;;;;;;7.43;59.76;101085.56;5022433;28;20639;-73
2023/04/25 09:17:32;;;;;;;3.97;1.67;;;;;;;7.62;62.88;101060.53;5022413;28;20277;-73
2023/04/25 09:20:07;;;;;;;5.60;2.10;;;;;;;7.09;62.83;101032.59;5024081;28;20198;-73
2023/04/25 09:22:36;;;;;;;9.03;2.00;;;;;;;7.13;63.86;101004.06;5024188;28;20206;-73
2023/04/25 09:25:04;;;;;;;5.03;1.90;;;;;;;7.24;64.18;100982.50;5027286;28;20210;-73
2023/04/25 09:27:30;;;;;;;9.27;2.60;;;;;;;7.12;64.46;100966.00;5023686;28;20319;-73
2023/04/25 09:29:58;;;;;;;3.33;1.60;;;;;;;7.14;65.24;100937.47;5023932;28;20196;-73
2023/04/25 09:32:25;;;;;;;8.60;2.30;;;;;;;7.33;65.35;100908.09;5023046;28;20287;-73
2023/04/25 09:34:53;;;;;;;8.33;2.17;;;;;;;7.46;65.94;100877.78;5022110;28;20213;-73
2023/04/25 09:37:21;;;;;;;4.10;1.83;;;;;;;7.40;65.07;100853.56;5021836;28;20224;-73
2023/04/25 09:39:50;;;;;;;4.80;1.80;;;;;;;7.76;63.70;100816.28;5022886;28;20206;-73
2023/04/25 09:42:17;;;;;;;5.93;1.90;;;;;;;8.00;62.55;100864.78;5019822;28;20198;-73
2023/04/25 09:44:45;;;;;;;3.83;1.53;;;;;;;8.02;56.98;100870.84;5031251;28;20213;-73
2023/04/25 09:47:13;;;;;;;5.47;1.67;;;;;;;7.79;58.53;100997.31;5026268;28;20227;-73
2023/04/25 09:49:42;;;;;;;5.20;2.37;;;;;;;7.65;57.54;101026.78;5023507;28;20311;-73
2023/04/25 09:52:09;;;;;;;6.10;1.80;;;;;;;7.62;58.58;101046.69;5029673;28;20214;-73
2023/04/25 09:54:36;;;;;;;3.47;1.50;;;;;;;7.61;59.18;101060.50;5032531;28;20681;-73
2023/04/25 09:57:10;;;;;;;6.90;2.50;;;;;;;7.59;57.17;101063.13;5046348;22;20788;-76
2023/04/25 09:59:40;;;;;;;4.33;1.33;;;;;;;7.72;58.48;101103.00;5032248;28;20214;-76
2023/04/25 10:02:08;;;;;;;5.33;2.27;;;;;;;7.71;57.31;101096.06;5032669;28;20218;-75
2023/04/25 10:04:36;;;;;;;1.87;1.10;;;;;;;7.74;56.02;101120.31;5032823;28;20213;-75
2023/04/25 10:07:05;;;;;;;4.77;2.03;;;;;;;7.77;55.22;101119.50;5032712;28;20236;-75
2023/04/25 10:09:34;;;;;;;4.33;1.30;;;;;;;7.89;57.11;101163.72;5032782;28;20269;-75
2023/04/25 10:12:01;;;;;;;2.57;1.50;;;;;;;7.82;58.15;101151.53;5032391;28;20403;-76
2023/04/25 10:14:30;;;;;;;4.63;1.20;;;;;;;7.92;59.00;101153.31;5032744;28;20212;-76
2023/04/25 10:16:58;;;;;;;3.13;1.43;;;;;;;7.84;59.21;101122.97;5032444;28;20236;-75
2023/04/25 10:19:24;;;;;;;1.83;1.40;;;;;;;7.64;59.24;101117.69;5032170;28;20736;-75
2023/04/25 10:21:54;;;;;;;4.00;1.50;;;;;;;7.98;59.60;101094.41;5013158;28;20236;-75
2023/04/25 10:24:21;;;;;;;5.20;1.70;;;;;;;8.17;58.94;101054.59;5012904;28;20210;-75
2023/04/25 10:26:48;;;;;;;4.17;1.53;;;;;;;8.43;59.60;101071.97;5012231;28;20256;-75
2023/04/25 10:29:22;;;;;;;4.53;1.60;;;;;;;8.72;59.10;101049.41;5012565;28;20298;-76
2023/04/25 10:31:50;;;;;;;2.43;1.33;;;;;;;8.44;57.43;101060.69;5012683;28;20264;-75
2023/04/25 10:34:17;;;;;;;2.37;1.60;;;;;;;8.72;56.82;101056.31;5012575;28;20217;-75
2023/04/25 10:36:43;;;;;;;6.83;3.00;;;;;;;8.89;56.97;101067.56;5012294;28;20208;-75
2023/04/25 10:39:10;;;;;;;3.87;1.53;;;;;;;8.69;57.39;101097.97;5012182;28;20616;-75
2023/04/25 10:41:54;;;;;;;4.63;1.13;;;;;;;8.54;57.55;101109.25;5014716;28;20628;-75
2023/04/25 10:44:21;;;;;;;5.83;1.83;;;;;;;8.28;58.44;101115.25;5021668;28;20667;-76
2023/04/25 10:46:47;;;;;;;7.50;1.80;;;;;;;8.38;59.10;101097.94;5023409;28;20203;-75
2023/04/25 10:49:31;;;;;;;4.07;1.57;;;;;;;8.07;58.73;101091.84;5031351;28;20634;-75
2023/04/25 10:52:19;;;;;;;6.03;1.93;;;;;;;7.70;60.72;101087.41;5022247;28;20202;-75
2023/04/25 10:54:49;;;;;;;3.50;1.70;;;;;;;7.68;60.37;101075.28;5022583;28;20287;-75
2023/04/25 10:57:48;;;;;;;3.30;1.43;;;;;;;7.55;61.06;101045.78;5020503;28;20335;-75
2023/04/25 11:00:17;;;;;;;7.77;2.07;;;;;;;7.46;61.20;101025.84;5025851;28;20199;-74
2023/04/25 11:02:46;;;;;;;4.30;1.60;;;;;;;7.43;61.68;101012.84;5032029;28;20208;-75
2023/04/25 11:05:22;;;;;;;5.53;1.77;;;;;;;7.58;62.27;100980.84;5032118;28;20574;-75
2023/04/25 11:07:52;;;;;;;5.90;1.70;;;;;;;7.59;62.79;100974.81;5031890;28;20344;-76
2023/04/25 11:10:19;;;;;;;3.27;1.80;;;;;;;7.79;62.91;100917.66;5031404;28;20230;-75
2023/04/25 11:12:46;;;;;;;7.57;2.20;;;;;;;7.92;60.87;100927.16;5032045;28;20306;-75
2023/04/25 11:15:13;;;;;;;4.63;2.00;;;;;;;7.96;61.88;100949.69;5031965;28;20213;-75
2023/04/25 11:17:40;;;;;;;5.00;1.87;;;;;;;8.08;60.30;100948.81;5031774;28;20229;-74
2023/04/25 11:20:11;;;;;;;2.87;1.63;;;;;;;8.04;59.84;100949.69;5026161;28;20209;-74
2023/04/25 11:22:40;;;;;;;5.27;1.60;;;;;;;8.05;59.39;100973.97;5029447;28;20222;-75
2023/04/25 11:25:08;;;;;;;4.10;2.00;;;;;;;8.16;59.63;100999.09;5031287;28;20205;-75
2023/04/25 11:27:34;;;;;;;6.80;1.90;;;;;;;8.21;61.13;101006.91;5031806;28;20235;-75
2023/04/25 11:30:11;;;;;;;7.77;2.00;;;;;;;8.01;61.78;100988.72;5031399;28;20582;-75
2023/04/25 11:32:37;;;;;;;3.90;1.57;;;;;;;8.09;61.45;100968.78;5031706;28;20264;-75
2023/04/25 11:35:05;;;;;;;7.30;1.53;;;;;;;8.11;59.80;100967.03;5031516;28;20219;-75